0°C Temp
'.PHP_EOL;
-2°C Dauwpunt
87% Vochtigheid
Temperatuur
11 KM/H
7 MPH
6 KTS
180°
Het Zuiden

Wind Snelheid
Veel verspreide wolken
Luchtdruk 1016.92 (hPa)- 30.03 (in)
Zicht 6.2 (mi) - 10 (km)

Huidig weer
EHKD
Locatie De Kooy 34(km)
Metar:
EHKD 180725Z AUTO 18006KT 9999 SCT200 M00/M02 Q1017 BLU 20008KT CAVOK
Fri 18th January 08:25 am

Vliegveld
  Metar Aviation API Data Provided by https://www.checkwx.com/